createdAt,value
2022-12-19T00:01:40.949Z,-3.09
2022-12-19T00:04:11.671Z,-3.13
2022-12-19T00:06:43.504Z,-3.09
2022-12-19T00:09:12.426Z,-3.18
2022-12-19T00:11:39.619Z,-3.20
2022-12-19T00:14:09.222Z,-3.21
2022-12-19T00:16:36.033Z,-3.21
2022-12-19T00:19:03.865Z,-3.21
2022-12-19T00:21:35.072Z,-3.31
2022-12-19T00:24:06.604Z,-3.27
2022-12-19T00:26:47.798Z,-3.20
2022-12-19T00:29:14.949Z,-3.25
2022-12-19T00:31:43.137Z,-3.17
2022-12-19T00:34:10.284Z,-3.12
2022-12-19T00:36:37.187Z,-3.13
2022-12-19T00:39:08.535Z,-3.18
2022-12-19T00:41:37.146Z,-3.22
2022-12-19T00:44:07.065Z,-3.34
2022-12-19T00:46:35.025Z,-3.32
2022-12-19T00:49:03.663Z,-3.40
2022-12-19T00:51:33.425Z,-3.38
2022-12-19T00:54:00.542Z,-3.44
2022-12-19T00:56:33.441Z,-3.40
2022-12-19T00:59:04.117Z,-3.51
2022-12-19T01:01:34.418Z,-3.37
2022-12-19T01:06:49.931Z,-3.24
2022-12-19T01:09:17.707Z,-3.17
2022-12-19T01:12:03.377Z,-3.21
2022-12-19T01:14:30.177Z,-3.16
2022-12-19T01:16:57.254Z,-3.10
2022-12-19T01:19:24.051Z,-3.13
2022-12-19T01:21:51.101Z,-3.19
2022-12-19T01:24:19.049Z,-3.15
2022-12-19T01:26:46.552Z,-3.14
2022-12-19T01:29:13.319Z,-3.09
2022-12-19T01:31:40.504Z,-2.97
2022-12-19T01:34:07.351Z,-3.11
2022-12-19T01:36:36.336Z,-3.12
2022-12-19T01:39:06.759Z,-3.09
2022-12-19T01:41:34.157Z,-3.06
2022-12-19T01:44:03.865Z,-3.04
2022-12-19T01:46:41.268Z,-3.06
2022-12-19T01:49:16.317Z,-2.98
2022-12-19T01:51:48.194Z,-2.98
2022-12-19T01:54:19.993Z,-2.96
2022-12-19T01:56:50.884Z,-2.99
2022-12-19T01:59:22.606Z,-3.01
2022-12-19T02:01:54.381Z,-2.97
2022-12-19T02:04:21.652Z,-3.03
2022-12-19T02:06:50.153Z,-2.92
2022-12-19T02:09:17.561Z,-3.00
2022-12-19T02:11:44.677Z,-3.00
2022-12-19T02:14:11.559Z,-3.02
2022-12-19T02:16:48.588Z,-2.87
2022-12-19T02:20:05.150Z,-2.94
2022-12-19T02:23:02.001Z,-3.00
2022-12-19T02:25:51.266Z,-2.94
2022-12-19T02:28:51.556Z,-2.97
2022-12-19T02:31:41.428Z,-2.93
2022-12-19T02:34:08.441Z,-2.94
2022-12-19T02:36:45.400Z,-2.74
2022-12-19T02:39:33.707Z,-2.79
2022-12-19T02:42:02.403Z,-3.06
2022-12-19T02:44:51.814Z,-3.04
2022-12-19T02:47:21.557Z,-2.99
2022-12-19T02:49:49.109Z,-3.13
2022-12-19T02:52:18.789Z,-3.10
2022-12-19T02:54:52.091Z,-3.05
2022-12-19T02:57:40.479Z,-2.92
2022-12-19T03:00:07.673Z,-2.83
2022-12-19T03:03:00.935Z,-2.77
2022-12-19T03:06:12.812Z,-2.71
2022-12-19T03:08:57.679Z,-2.66
2022-12-19T03:11:29.435Z,-2.70
2022-12-19T03:14:09.912Z,-2.68
2022-12-19T03:16:37.363Z,-2.66
2022-12-19T03:19:08.611Z,-2.60
2022-12-19T03:21:44.734Z,-2.58
2022-12-19T03:24:14.026Z,-2.58
2022-12-19T03:27:02.165Z,-2.54
2022-12-19T03:29:37.918Z,-2.58
2022-12-19T03:32:09.159Z,-2.50
2022-12-19T03:34:46.042Z,-2.49
2022-12-19T03:37:22.572Z,-2.52
2022-12-19T03:39:54.557Z,-2.58
2022-12-19T03:42:44.415Z,-2.56
2022-12-19T03:45:13.482Z,-2.45
2022-12-19T03:47:44.264Z,-2.47
2022-12-19T03:50:11.231Z,-2.50
2022-12-19T03:52:57.152Z,-2.46
2022-12-19T03:56:10.713Z,-2.35
2022-12-19T03:58:43.652Z,-2.37
2022-12-19T04:01:10.588Z,-2.34
2022-12-19T04:03:37.671Z,-2.41
2022-12-19T04:06:06.177Z,-2.28
2022-12-19T04:08:35.509Z,-2.31
2022-12-19T04:11:09.535Z,-2.22
2022-12-19T04:13:54.744Z,-2.26
2022-12-19T04:16:27.659Z,-2.28
2022-12-19T04:19:11.027Z,-2.26
2022-12-19T04:22:01.931Z,-2.25
2022-12-19T04:24:37.666Z,-2.26
2022-12-19T04:27:08.235Z,-2.33
2022-12-19T04:29:38.543Z,-2.27
2022-12-19T04:32:06.852Z,-2.17
2022-12-19T04:34:35.990Z,-2.23
2022-12-19T04:37:05.256Z,-2.24
2022-12-19T04:39:33.017Z,-2.23
2022-12-19T04:42:00.106Z,-2.11
2022-12-19T04:44:27.162Z,-2.16
2022-12-19T04:46:54.032Z,-2.20
2022-12-19T04:49:21.439Z,-2.13
2022-12-19T04:51:48.300Z,-2.09
2022-12-19T04:54:15.330Z,-2.11
2022-12-19T04:56:42.149Z,-2.09
2022-12-19T04:59:09.997Z,-2.14
2022-12-19T05:01:37.109Z,-2.14
2022-12-19T05:04:04.818Z,-2.08
2022-12-19T05:06:32.352Z,-2.06
2022-12-19T05:09:02.378Z,-2.01
2022-12-19T05:11:29.165Z,-2.00
2022-12-19T05:13:56.268Z,-1.97
2022-12-19T05:16:23.072Z,-1.96
2022-12-19T05:18:50.146Z,-1.87
2022-12-19T05:21:16.964Z,-1.83
2022-12-19T05:23:44.077Z,-1.89
2022-12-19T05:26:11.557Z,-1.85
2022-12-19T05:28:41.530Z,-1.85
2022-12-19T05:31:20.041Z,-1.76
2022-12-19T05:33:48.004Z,-1.81
2022-12-19T05:36:16.766Z,-1.77
2022-12-19T05:38:44.275Z,-1.75
2022-12-19T05:41:16.726Z,-1.77
2022-12-19T05:43:45.238Z,-1.78
2022-12-19T05:46:12.614Z,-1.78
2022-12-19T05:48:39.739Z,-1.71
2022-12-19T05:51:07.100Z,-1.76
2022-12-19T05:53:38.539Z,-1.74
2022-12-19T05:56:17.630Z,-1.78
2022-12-19T05:58:46.123Z,-1.79
2022-12-19T06:01:17.469Z,-1.66
2022-12-19T06:03:45.152Z,-1.64
2022-12-19T06:06:19.664Z,-1.66
2022-12-19T06:08:47.231Z,-1.61
2022-12-19T06:11:14.936Z,-1.58
2022-12-19T06:13:42.305Z,-1.58
2022-12-19T06:16:14.858Z,-1.50
2022-12-19T06:18:45.049Z,-1.55
2022-12-19T06:21:17.567Z,-1.50
2022-12-19T06:23:45.469Z,-1.44
2022-12-19T06:26:18.719Z,-1.36
2022-12-19T06:28:48.268Z,-1.39
2022-12-19T06:31:15.765Z,-1.34
2022-12-19T06:33:42.999Z,-1.34
2022-12-19T06:36:22.435Z,-1.30
2022-12-19T06:38:50.790Z,-1.26
2022-12-19T06:41:38.199Z,-1.11
2022-12-19T06:44:10.515Z,-1.00
2022-12-19T06:46:38.996Z,-1.13
2022-12-19T06:49:06.527Z,-1.09
2022-12-19T06:51:33.830Z,-1.02
2022-12-19T06:54:00.927Z,-1.11
2022-12-19T06:56:28.230Z,-1.20
2022-12-19T06:58:55.332Z,-1.22
2022-12-19T07:01:47.957Z,-1.25
2022-12-19T07:04:18.741Z,-1.21
2022-12-19T07:06:49.062Z,-1.22
2022-12-19T07:09:17.424Z,-1.29
2022-12-19T07:11:44.242Z,-1.34
2022-12-19T07:14:11.305Z,-1.27
2022-12-19T07:16:38.418Z,-1.34
2022-12-19T07:19:08.899Z,-1.22
2022-12-19T07:21:36.736Z,-1.22
2022-12-19T07:24:04.462Z,-1.34
2022-12-19T07:26:31.926Z,-1.40
2022-12-19T07:29:00.468Z,-1.27
2022-12-19T07:31:27.359Z,-1.31
2022-12-19T07:33:54.466Z,-1.24
2022-12-19T07:36:21.231Z,-1.33
2022-12-19T07:38:51.136Z,-1.31
2022-12-19T07:41:18.022Z,-1.27
2022-12-19T07:43:45.718Z,-1.27
2022-12-19T07:46:12.627Z,-1.35
2022-12-19T07:48:39.682Z,-1.33
2022-12-19T07:51:06.679Z,-1.33
2022-12-19T07:53:33.795Z,-1.41
2022-12-19T07:56:00.534Z,-1.47
2022-12-19T07:58:27.821Z,-1.42
2022-12-19T08:01:00.789Z,-1.34
2022-12-19T08:03:28.534Z,-1.28
2022-12-19T08:06:02.672Z,-1.22
2022-12-19T08:08:30.451Z,-1.15
2022-12-19T08:11:06.864Z,-1.28
2022-12-19T08:13:39.680Z,-1.26
2022-12-19T08:16:10.693Z,-1.21
2022-12-19T08:18:38.067Z,-1.40
2022-12-19T08:21:04.886Z,-1.26
2022-12-19T08:23:33.044Z,-1.19
2022-12-19T08:26:03.881Z,-1.12
2022-12-19T08:28:32.927Z,-1.28
2022-12-19T08:31:05.655Z,-1.25
2022-12-19T08:33:32.775Z,-1.07
2022-12-19T08:36:04.286Z,-1.02
2022-12-19T08:38:31.342Z,-1.08
2022-12-19T08:40:58.072Z,-1.16
2022-12-19T08:43:27.103Z,-1.18
2022-12-19T08:45:54.354Z,-1.09
2022-12-19T08:48:21.746Z,-1.12
2022-12-19T08:50:57.054Z,-1.11
2022-12-19T08:53:26.628Z,-1.06
2022-12-19T08:55:55.920Z,-0.88
2022-12-19T08:58:24.410Z,-1.05
2022-12-19T09:00:57.570Z,-1.03
2022-12-19T09:03:26.526Z,-0.91
2022-12-19T09:06:08.160Z,-0.93
2022-12-19T09:08:40.385Z,-0.46
2022-12-19T09:11:12.200Z,0.05
2022-12-19T09:13:40.649Z,0.32
2022-12-19T09:16:21.963Z,0.22
2022-12-19T09:18:51.651Z,0.01
2022-12-19T09:21:21.169Z,-0.06
2022-12-19T09:24:01.943Z,-0.13
2022-12-19T09:26:32.899Z,-0.18
2022-12-19T09:29:01.318Z,-0.08
2022-12-19T09:31:29.184Z,-0.10
2022-12-19T09:33:56.452Z,0.32
2022-12-19T09:36:24.983Z,0.47
2022-12-19T09:38:57.449Z,0.66
2022-12-19T09:41:41.301Z,0.42
2022-12-19T09:44:20.373Z,0.73
2022-12-19T09:46:51.963Z,0.86
2022-12-19T09:49:23.063Z,1.01
2022-12-19T09:51:59.175Z,1.03
2022-12-19T09:54:38.755Z,0.81
2022-12-19T09:57:33.207Z,0.77
2022-12-19T10:00:22.251Z,0.55
2022-12-19T10:03:07.809Z,0.70
2022-12-19T10:07:16.108Z,0.40
2022-12-19T10:09:20.197Z,0.53
2022-12-19T10:12:44.784Z,0.48
2022-12-19T10:14:30.163Z,0.65
2022-12-19T10:17:26.539Z,0.87
2022-12-19T10:20:15.115Z,1.18
2022-12-19T10:22:50.933Z,1.36
2022-12-19T10:25:25.990Z,1.46
2022-12-19T10:28:34.459Z,1.77
2022-12-19T10:31:29.020Z,2.15
2022-12-19T10:34:07.738Z,2.39
2022-12-19T10:37:24.487Z,2.49
2022-12-19T10:39:46.139Z,2.76
2022-12-19T10:42:19.770Z,2.83
2022-12-19T10:44:49.403Z,2.88
2022-12-19T10:47:17.400Z,2.99
2022-12-19T10:49:44.480Z,2.91
2022-12-19T10:52:13.059Z,3.18
2022-12-19T10:54:44.024Z,2.95
2022-12-19T10:57:21.585Z,2.69
2022-12-19T11:00:16.396Z,2.36
2022-12-19T11:02:45.245Z,2.38
2022-12-19T11:05:43.418Z,2.36
2022-12-19T11:08:28.162Z,2.60
2022-12-19T11:12:01.068Z,2.64
2022-12-19T11:19:49.152Z,2.45
2022-12-19T11:20:51.290Z,2.11
2022-12-19T11:29:16.170Z,1.76
2022-12-19T11:29:18.860Z,1.54
2022-12-19T11:29:42.132Z,1.59
2022-12-19T11:30:36.186Z,1.49
2022-12-19T11:32:31.884Z,1.61
2022-12-19T11:34:25.130Z,1.67
2022-12-19T11:37:21.323Z,1.56
2022-12-19T11:39:54.432Z,1.64
2022-12-19T11:42:25.513Z,1.66
2022-12-19T11:45:17.765Z,1.69
2022-12-19T11:47:53.620Z,1.55
2022-12-19T11:50:26.684Z,1.63
2022-12-19T11:53:48.147Z,1.71
2022-12-19T11:56:19.339Z,1.62
2022-12-19T11:58:50.405Z,1.43
2022-12-19T12:01:48.234Z,1.46
2022-12-19T12:04:26.936Z,1.58
2022-12-19T12:06:55.981Z,1.53
2022-12-19T12:12:55.112Z,1.44
2022-12-19T12:20:01.332Z,1.14
2022-12-19T12:25:21.379Z,1.04
2022-12-19T12:31:17.721Z,1.11
2022-12-19T12:31:31.376Z,1.04
2022-12-19T12:31:50.445Z,0.70
2022-12-19T12:32:02.053Z,0.83
2022-12-19T12:32:06.759Z,1.07
2022-12-19T12:35:45.383Z,0.89
2022-12-19T12:40:25.570Z,1.12
2022-12-19T12:43:14.349Z,1.02
2022-12-19T12:45:45.042Z,0.75
2022-12-19T12:48:30.099Z,0.82
2022-12-19T12:51:01.206Z,0.69
2022-12-19T12:53:34.467Z,0.56
2022-12-19T12:56:05.651Z,0.65
2022-12-19T12:58:49.868Z,0.60
2022-12-19T13:01:33.608Z,0.55
2022-12-19T13:04:05.711Z,0.54
2022-12-19T13:06:37.093Z,0.39
2022-12-19T13:09:08.856Z,0.37
2022-12-19T13:11:59.559Z,0.77
2022-12-19T13:14:35.587Z,0.57
2022-12-19T13:17:06.476Z,0.33
2022-12-19T13:19:35.773Z,0.17
2022-12-19T13:22:07.451Z,0.11
2022-12-19T13:24:55.672Z,-0.02
2022-12-19T13:27:22.677Z,0.07
2022-12-19T13:30:12.515Z,0.23
2022-12-19T13:32:39.520Z,0.31
2022-12-19T13:36:34.656Z,0.34
2022-12-19T13:39:59.623Z,0.45
2022-12-19T13:41:48.094Z,0.31
2022-12-19T13:44:21.360Z,0.15
2022-12-19T13:46:49.563Z,0.16
2022-12-19T13:49:31.843Z,-0.09
2022-12-19T13:52:03.851Z,-0.20
2022-12-19T13:54:36.883Z,-0.18
2022-12-19T13:57:09.768Z,-0.18
2022-12-19T13:59:40.404Z,-0.12
2022-12-19T14:02:31.857Z,-0.15
2022-12-19T14:04:59.751Z,-0.18
2022-12-19T14:07:40.698Z,-0.27
2022-12-19T14:11:31.330Z,-0.37
2022-12-19T14:13:58.917Z,-0.38
2022-12-19T14:16:44.201Z,-0.40
2022-12-19T14:19:30.936Z,-0.44
2022-12-19T14:22:20.665Z,-0.48
2022-12-19T14:25:32.152Z,-0.64
2022-12-19T14:28:20.450Z,-0.69
2022-12-19T14:30:50.298Z,-0.65
2022-12-19T14:33:44.324Z,-0.79
2022-12-19T14:36:25.712Z,-0.94
2022-12-19T14:39:23.114Z,-1.01
2022-12-19T14:42:04.771Z,-0.95
2022-12-19T14:54:01.592Z,-0.94
2022-12-19T14:54:07.367Z,-0.97
2022-12-19T14:54:15.964Z,-0.93
2022-12-19T14:54:50.269Z,-0.99
2022-12-19T14:59:03.747Z,-1.01
2022-12-19T15:01:33.693Z,-1.07
2022-12-19T15:04:48.138Z,-1.16
2022-12-19T15:07:09.059Z,-1.20
2022-12-19T15:11:07.501Z,-1.14
2022-12-19T15:14:47.667Z,-1.01
2022-12-19T15:16:03.458Z,-1.14
2022-12-19T15:18:33.357Z,-1.16
2022-12-19T15:21:06.596Z,-1.21
2022-12-19T15:23:33.691Z,-1.28
2022-12-19T15:26:06.089Z,-1.36
2022-12-19T15:28:42.242Z,-1.27
2022-12-19T15:31:38.575Z,-1.36
2022-12-19T15:34:37.308Z,-1.40
2022-12-19T15:37:05.988Z,-1.46
2022-12-19T15:39:32.781Z,-1.57
2022-12-19T15:42:01.378Z,-1.54
2022-12-19T15:44:34.334Z,-1.59
2022-12-19T15:47:03.956Z,-1.60
2022-12-19T15:49:32.799Z,-1.56
2022-12-19T15:52:00.090Z,-1.49
2022-12-19T15:57:34.222Z,-1.54
2022-12-19T16:00:05.281Z,-1.62
2022-12-19T16:05:25.155Z,-1.61
2022-12-19T16:07:52.491Z,-1.63
2022-12-19T16:10:19.260Z,-1.61
2022-12-19T16:12:55.846Z,-1.59
2022-12-19T16:15:27.582Z,-1.54
2022-12-19T16:17:55.342Z,-1.52
2022-12-19T16:20:27.934Z,-1.50
2022-12-19T16:22:55.400Z,-1.50
2022-12-19T16:25:25.938Z,-1.52
2022-12-19T16:27:58.466Z,-1.54
2022-12-19T16:30:30.825Z,-1.54
2022-12-19T16:32:58.316Z,-1.48
2022-12-19T16:36:02.406Z,-1.44
2022-12-19T16:38:15.707Z,-1.40
2022-12-19T16:40:43.645Z,-1.30
2022-12-19T16:43:29.510Z,-1.36
2022-12-19T16:46:01.102Z,-1.36
2022-12-19T16:48:30.193Z,-1.28
2022-12-19T16:50:58.514Z,-1.37
2022-12-19T16:53:26.059Z,-1.44
2022-12-19T16:55:55.650Z,-1.29
2022-12-19T16:58:25.201Z,-1.33
2022-12-19T17:00:56.375Z,-1.28
2022-12-19T17:03:29.592Z,-1.37
2022-12-19T17:05:56.604Z,-1.26
2022-12-19T17:08:24.335Z,-1.28
2022-12-19T17:10:52.948Z,-1.28
2022-12-19T17:13:21.409Z,-1.25
2022-12-19T17:15:56.008Z,-1.24
2022-12-19T17:18:36.020Z,-1.26
2022-12-19T17:21:03.069Z,-1.18
2022-12-19T17:23:32.556Z,-1.17
2022-12-19T17:26:00.856Z,-1.19
2022-12-19T17:28:29.407Z,-1.16
2022-12-19T17:30:59.355Z,-1.07
2022-12-19T17:33:35.007Z,-0.93
2022-12-19T17:36:02.900Z,-0.97
2022-12-19T17:38:30.995Z,-1.01
2022-12-19T17:40:58.378Z,-1.00
2022-12-19T17:43:25.576Z,-1.10
2022-12-19T17:45:52.661Z,-1.13
2022-12-19T17:48:27.876Z,-1.16
2022-12-19T17:50:55.547Z,-1.12
2022-12-19T17:53:23.084Z,-1.11
2022-12-19T17:55:50.343Z,-1.06
2022-12-19T17:58:17.801Z,-1.07
2022-12-19T18:00:47.353Z,-0.99
2022-12-19T18:03:24.904Z,-1.01
2022-12-19T18:05:54.672Z,-1.09
2022-12-19T18:08:26.427Z,-1.16
2022-12-19T18:10:54.190Z,-1.20
2022-12-19T18:13:21.330Z,-1.22
2022-12-19T18:15:48.288Z,-1.18
2022-12-19T18:18:18.613Z,-1.18
2022-12-19T18:20:45.370Z,-1.15
2022-12-19T18:23:21.198Z,-1.18
2022-12-19T18:25:49.048Z,-1.25
2022-12-19T18:28:16.313Z,-1.22
2022-12-19T18:30:44.847Z,-1.08
2022-12-19T18:33:23.115Z,-1.03
2022-12-19T18:35:50.970Z,-1.13
2022-12-19T18:38:23.327Z,-1.06
2022-12-19T18:40:54.606Z,-1.09
2022-12-19T18:43:21.709Z,-1.02
2022-12-19T18:45:52.161Z,-1.07
2022-12-19T18:48:25.195Z,-1.09
2022-12-19T18:50:53.219Z,-1.11
2022-12-19T18:53:21.841Z,-1.18
2022-12-19T18:55:50.991Z,-1.21
2022-12-19T18:58:20.549Z,-1.25
2022-12-19T19:00:49.576Z,-1.21
2022-12-19T19:03:23.538Z,-1.16
2022-12-19T19:05:51.196Z,-1.06
2022-12-19T19:08:25.085Z,-1.17
2022-12-19T19:10:53.937Z,-1.17
2022-12-19T19:13:22.469Z,-1.19
2022-12-19T19:15:56.795Z,-1.24
2022-12-19T19:18:43.920Z,-1.30
2022-12-19T19:21:13.223Z,-1.35
2022-12-19T19:23:47.168Z,-1.34
2022-12-19T19:26:13.940Z,-1.36
2022-12-19T19:28:41.041Z,-1.35
2022-12-19T19:31:12.805Z,-1.28
2022-12-19T19:33:42.834Z,-1.26
2022-12-19T19:36:15.585Z,-1.21
2022-12-19T19:38:47.363Z,-1.17
2022-12-19T19:41:14.110Z,-1.18
2022-12-19T19:43:41.370Z,-1.18
2022-12-19T19:46:08.211Z,-1.14
2022-12-19T19:48:35.718Z,-1.01
2022-12-19T19:51:02.574Z,-1.03
2022-12-19T19:53:29.764Z,-0.99
2022-12-19T19:56:01.212Z,-0.94
2022-12-19T19:58:29.240Z,-1.00
2022-12-19T20:00:56.792Z,-1.07
2022-12-19T20:03:24.541Z,-1.07
2022-12-19T20:05:59.883Z,-0.96
2022-12-19T20:08:27.144Z,-1.08
2022-12-19T20:10:58.803Z,-1.03
2022-12-19T20:13:30.352Z,-1.11
2022-12-19T20:16:09.699Z,-1.15
2022-12-19T20:18:40.302Z,-1.12
2022-12-19T20:21:12.695Z,-1.14
2022-12-19T20:23:42.666Z,-1.06
2022-12-19T20:26:11.409Z,-1.04
2022-12-19T20:28:46.008Z,-1.00
2022-12-19T20:31:15.014Z,-1.04
2022-12-19T20:33:42.257Z,-0.91
2022-12-19T20:36:11.431Z,-0.98
2022-12-19T20:38:38.829Z,-0.99
2022-12-19T20:41:05.690Z,-0.99
2022-12-19T20:43:33.753Z,-1.03
2022-12-19T20:46:02.354Z,-1.06
2022-12-19T20:48:29.465Z,-1.12
2022-12-19T20:51:00.509Z,-1.06
2022-12-19T20:53:27.571Z,-1.08
2022-12-19T20:55:58.326Z,-1.14
2022-12-19T20:58:27.145Z,-1.16
2022-12-19T21:01:02.650Z,-1.15
2022-12-19T21:03:30.560Z,-1.16
2022-12-19T21:05:58.208Z,-1.12
2022-12-19T21:08:26.220Z,-1.12
2022-12-19T21:10:53.812Z,-1.11
2022-12-19T21:13:22.985Z,-1.18
2022-12-19T21:15:54.522Z,-1.19
2022-12-19T21:18:23.479Z,-1.11
2022-12-19T21:20:54.785Z,-1.12
2022-12-19T21:23:23.622Z,-1.15
2022-12-19T21:25:50.433Z,-1.06
2022-12-19T21:28:17.606Z,-1.03
2022-12-19T21:30:44.641Z,-1.07
2022-12-19T21:33:11.662Z,-1.01
2022-12-19T21:35:39.102Z,-1.07
2022-12-19T21:38:06.143Z,-1.09
2022-12-19T21:40:36.151Z,-0.92
2022-12-19T21:43:11.197Z,-1.12
2022-12-19T21:45:38.708Z,-1.18
2022-12-19T21:48:08.658Z,-1.23
2022-12-19T21:50:35.643Z,-1.19
2022-12-19T21:53:02.700Z,-1.16
2022-12-19T21:55:29.507Z,-1.32
2022-12-19T21:57:56.741Z,-1.30
2022-12-19T22:00:23.756Z,-1.22
2022-12-19T22:03:12.741Z,-1.23
2022-12-19T22:05:38.606Z,-1.25
2022-12-19T22:08:05.692Z,-1.25
2022-12-19T22:10:32.477Z,-1.26
2022-12-19T22:12:59.556Z,-1.31
2022-12-19T22:15:26.511Z,-1.29
2022-12-19T22:17:53.565Z,-1.27
2022-12-19T22:20:20.347Z,-1.28
2022-12-19T22:22:47.413Z,-1.47
2022-12-19T22:25:14.330Z,-1.46
2022-12-19T22:27:41.373Z,-1.49
2022-12-19T22:30:11.248Z,-1.51
2022-12-19T22:32:38.642Z,-1.55
2022-12-19T22:35:06.087Z,-1.70
2022-12-19T22:37:33.246Z,-1.66
2022-12-19T22:40:00.314Z,-1.69
2022-12-19T22:42:30.334Z,-1.71
2022-12-19T22:44:57.098Z,-1.66
2022-12-19T22:47:24.126Z,-1.68
2022-12-19T22:49:52.162Z,-1.70
2022-12-19T22:52:19.445Z,-1.77
2022-12-19T22:54:46.225Z,-1.78
2022-12-19T22:57:13.331Z,-1.76
2022-12-19T22:59:43.257Z,-1.80
2022-12-19T23:02:10.493Z,-1.76
2022-12-19T23:04:37.486Z,-1.76
2022-12-19T23:07:04.550Z,-1.76
2022-12-19T23:09:31.328Z,-1.72
2022-12-19T23:11:58.366Z,-1.73
2022-12-19T23:14:25.150Z,-1.68
2022-12-19T23:16:52.388Z,-1.70
2022-12-19T23:19:19.226Z,-1.58
2022-12-19T23:21:47.202Z,-1.66
2022-12-19T23:24:14.179Z,-1.71
2022-12-19T23:26:41.313Z,-1.79
2022-12-19T23:29:14.256Z,-1.75
2022-12-19T23:31:43.934Z,-1.75
2022-12-19T23:34:11.236Z,-1.76
2022-12-19T23:37:09.520Z,-1.75
2022-12-19T23:39:25.854Z,-1.81
2022-12-19T23:41:52.909Z,-1.88
2022-12-19T23:44:19.951Z,-1.85
2022-12-19T23:46:47.027Z,-1.85
2022-12-19T23:49:13.800Z,-1.85
2022-12-19T23:51:40.862Z,-1.85
2022-12-19T23:54:08.865Z,-1.86
2022-12-19T23:56:36.086Z,-1.83
2022-12-19T23:59:03.158Z,-1.81
